sensor_id;sensor_type;location;lat;lon;timestamp;P1;durP1;ratioP1;P2;durP2;ratioP2
24421;SDS011;12600;53.326;-6.298;2023-10-19T00:02:39;89.25;;;30.02;;
24421;SDS011;12600;53.326;-6.298;2023-10-19T00:05:29;92.13;;;30.65;;
24421;SDS011;12600;53.326;-6.298;2023-10-19T00:08:19;84.95;;;29.20;;
24421;SDS011;12600;53.326;-6.298;2023-10-19T00:11:10;76.95;;;29.75;;
24421;SDS011;12600;53.326;-6.298;2023-10-19T00:14:08;89.28;;;30.20;;
24421;SDS011;12600;53.326;-6.298;2023-10-19T00:17:03;82.70;;;29.05;;
24421;SDS011;12600;53.326;-6.298;2023-10-19T00:19:52;78.60;;;27.75;;
24421;SDS011;12600;53.326;-6.298;2023-10-19T00:23:07;77.22;;;27.05;;
24421;SDS011;12600;53.326;-6.298;2023-10-19T00:25:57;74.38;;;26.95;;
24421;SDS011;12600;53.326;-6.298;2023-10-19T00:28:49;83.40;;;25.38;;
24421;SDS011;12600;53.326;-6.298;2023-10-19T00:31:40;68.63;;;24.15;;
24421;SDS011;12600;53.326;-6.298;2023-10-19T00:34:32;81.35;;;23.80;;
24421;SDS011;12600;53.326;-6.298;2023-10-19T00:37:21;63.25;;;21.73;;
24421;SDS011;12600;53.326;-6.298;2023-10-19T00:40:16;60.00;;;20.23;;
24421;SDS011;12600;53.326;-6.298;2023-10-19T00:43:28;51.67;;;20.58;;
24421;SDS011;12600;53.326;-6.298;2023-10-19T00:46:20;58.17;;;17.95;;
24421;SDS011;12600;53.326;-6.298;2023-10-19T00:49:13;47.10;;;16.60;;
24421;SDS011;12600;53.326;-6.298;2023-10-19T00:52:03;53.13;;;17.42;;
24421;SDS011;12600;53.326;-6.298;2023-10-19T00:54:59;41.28;;;14.50;;
24421;SDS011;12600;53.326;-6.298;2023-10-19T00:57:52;36.80;;;14.80;;
24421;SDS011;12600;53.326;-6.298;2023-10-19T01:00:45;46.45;;;13.88;;
24421;SDS011;12600;53.326;-6.298;2023-10-19T01:03:37;35.15;;;13.20;;
24421;SDS011;12600;53.326;-6.298;2023-10-19T01:06:26;38.33;;;11.50;;
24421;SDS011;12600;53.326;-6.298;2023-10-19T01:09:19;46.08;;;14.55;;
24421;SDS011;12600;53.326;-6.298;2023-10-19T01:12:08;39.08;;;13.88;;
24421;SDS011;12600;53.326;-6.298;2023-10-19T01:15:15;37.28;;;12.38;;
24421;SDS011;12600;53.326;-6.298;2023-10-19T01:18:11;37.83;;;12.27;;
24421;SDS011;12600;53.326;-6.298;2023-10-19T01:21:01;47.05;;;13.15;;
24421;SDS011;12600;53.326;-6.298;2023-10-19T01:23:55;38.35;;;13.23;;
24421;SDS011;12600;53.326;-6.298;2023-10-19T01:26:45;42.37;;;11.63;;
24421;SDS011;12600;53.326;-6.298;2023-10-19T01:29:35;38.30;;;11.48;;
24421;SDS011;12600;53.326;-6.298;2023-10-19T01:32:28;29.13;;;10.98;;
24421;SDS011;12600;53.326;-6.298;2023-10-19T01:35:18;42.03;;;11.30;;
24421;SDS011;12600;53.326;-6.298;2023-10-19T01:38:08;34.85;;;11.60;;
24421;SDS011;12600;53.326;-6.298;2023-10-19T01:40:58;37.67;;;11.50;;
24421;SDS011;12600;53.326;-6.298;2023-10-19T01:43:49;34.10;;;11.05;;
24421;SDS011;12600;53.326;-6.298;2023-10-19T01:46:41;32.83;;;10.32;;
24421;SDS011;12600;53.326;-6.298;2023-10-19T01:49:33;22.48;;;8.85;;
24421;SDS011;12600;53.326;-6.298;2023-10-19T01:52:21;33.58;;;10.57;;
24421;SDS011;12600;53.326;-6.298;2023-10-19T01:55:12;37.30;;;11.27;;
24421;SDS011;12600;53.326;-6.298;2023-10-19T01:58:02;35.45;;;11.15;;
24421;SDS011;12600;53.326;-6.298;2023-10-19T02:00:52;31.60;;;10.50;;
24421;SDS011;12600;53.326;-6.298;2023-10-19T02:03:43;23.55;;;9.43;;
24421;SDS011;12600;53.326;-6.298;2023-10-19T02:06:33;27.65;;;9.52;;
24421;SDS011;12600;53.326;-6.298;2023-10-19T02:09:25;31.40;;;9.75;;
24421;SDS011;12600;53.326;-6.298;2023-10-19T02:12:15;29.88;;;10.30;;
24421;SDS011;12600;53.326;-6.298;2023-10-19T02:15:08;30.48;;;10.27;;
24421;SDS011;12600;53.326;-6.298;2023-10-19T02:17:58;30.85;;;10.48;;
24421;SDS011;12600;53.326;-6.298;2023-10-19T02:20:50;25.83;;;9.55;;
24421;SDS011;12600;53.326;-6.298;2023-10-19T02:23:39;39.33;;;10.13;;
24421;SDS011;12600;53.326;-6.298;2023-10-19T02:26:29;35.40;;;10.70;;
24421;SDS011;12600;53.326;-6.298;2023-10-19T02:29:19;35.92;;;11.68;;
24421;SDS011;12600;53.326;-6.298;2023-10-19T02:32:11;30.95;;;11.40;;
24421;SDS011;12600;53.326;-6.298;2023-10-19T02:34:59;35.45;;;10.60;;
24421;SDS011;12600;53.326;-6.298;2023-10-19T02:37:50;32.90;;;10.68;;
24421;SDS011;12600;53.326;-6.298;2023-10-19T02:40:38;31.95;;;11.10;;
24421;SDS011;12600;53.326;-6.298;2023-10-19T02:43:29;36.75;;;10.63;;
24421;SDS011;12600;53.326;-6.298;2023-10-19T02:46:20;32.70;;;10.10;;
24421;SDS011;12600;53.326;-6.298;2023-10-19T02:49:13;30.77;;;10.45;;
24421;SDS011;12600;53.326;-6.298;2023-10-19T02:52:07;29.33;;;10.05;;
24421;SDS011;12600;53.326;-6.298;2023-10-19T02:54:57;29.33;;;10.38;;
24421;SDS011;12600;53.326;-6.298;2023-10-19T02:57:47;24.65;;;10.23;;
24421;SDS011;12600;53.326;-6.298;2023-10-19T03:00:37;31.63;;;10.90;;
24421;SDS011;12600;53.326;-6.298;2023-10-19T03:03:26;32.92;;;11.50;;
24421;SDS011;12600;53.326;-6.298;2023-10-19T03:06:20;39.63;;;11.32;;
24421;SDS011;12600;53.326;-6.298;2023-10-19T03:09:10;33.17;;;10.55;;
24421;SDS011;12600;53.326;-6.298;2023-10-19T03:12:09;40.53;;;11.98;;
24421;SDS011;12600;53.326;-6.298;2023-10-19T03:15:01;35.10;;;11.13;;
24421;SDS011;12600;53.326;-6.298;2023-10-19T03:17:49;25.80;;;10.52;;
24421;SDS011;12600;53.326;-6.298;2023-10-19T03:20:41;32.50;;;10.65;;
24421;SDS011;12600;53.326;-6.298;2023-10-19T03:23:30;30.02;;;10.38;;
24421;SDS011;12600;53.326;-6.298;2023-10-19T03:26:21;76.60;;;13.40;;
24421;SDS011;12600;53.326;-6.298;2023-10-19T03:29:15;31.88;;;10.95;;
24421;SDS011;12600;53.326;-6.298;2023-10-19T03:32:10;32.97;;;10.50;;
24421;SDS011;12600;53.326;-6.298;2023-10-19T03:34:59;28.70;;;11.15;;
24421;SDS011;12600;53.326;-6.298;2023-10-19T03:37:51;39.75;;;10.52;;
24421;SDS011;12600;53.326;-6.298;2023-10-19T03:40:42;29.33;;;10.40;;
24421;SDS011;12600;53.326;-6.298;2023-10-19T03:43:40;31.77;;;11.25;;
24421;SDS011;12600;53.326;-6.298;2023-10-19T03:46:31;30.90;;;10.90;;
24421;SDS011;12600;53.326;-6.298;2023-10-19T03:49:25;36.53;;;10.73;;
24421;SDS011;12600;53.326;-6.298;2023-10-19T03:52:21;35.45;;;11.13;;
24421;SDS011;12600;53.326;-6.298;2023-10-19T03:55:10;31.85;;;10.57;;
24421;SDS011;12600;53.326;-6.298;2023-10-19T03:58:05;40.80;;;11.10;;
24421;SDS011;12600;53.326;-6.298;2023-10-19T04:00:54;26.95;;;10.27;;
24421;SDS011;12600;53.326;-6.298;2023-10-19T04:03:49;35.60;;;12.00;;
24421;SDS011;12600;53.326;-6.298;2023-10-19T04:06:40;34.70;;;12.90;;
24421;SDS011;12600;53.326;-6.298;2023-10-19T04:09:33;34.35;;;12.15;;
24421;SDS011;12600;53.326;-6.298;2023-10-19T04:12:28;90.90;;;14.35;;
24421;SDS011;12600;53.326;-6.298;2023-10-19T04:15:19;32.45;;;12.30;;
24421;SDS011;12600;53.326;-6.298;2023-10-19T04:18:09;30.77;;;12.30;;
24421;SDS011;12600;53.326;-6.298;2023-10-19T04:21:00;25.85;;;11.02;;
24421;SDS011;12600;53.326;-6.298;2023-10-19T04:23:50;26.52;;;9.57;;
24421;SDS011;12600;53.326;-6.298;2023-10-19T04:26:40;23.98;;;9.55;;
24421;SDS011;12600;53.326;-6.298;2023-10-19T04:29:29;26.55;;;9.90;;
24421;SDS011;12600;53.326;-6.298;2023-10-19T04:32:20;30.15;;;9.05;;
24421;SDS011;12600;53.326;-6.298;2023-10-19T04:35:13;30.27;;;8.80;;
24421;SDS011;12600;53.326;-6.298;2023-10-19T04:38:09;29.45;;;8.43;;
24421;SDS011;12600;53.326;-6.298;2023-10-19T04:41:05;25.80;;;9.02;;
24421;SDS011;12600;53.326;-6.298;2023-10-19T04:43:56;24.45;;;7.53;;
24421;SDS011;12600;53.326;-6.298;2023-10-19T04:46:45;24.15;;;7.50;;
24421;SDS011;12600;53.326;-6.298;2023-10-19T04:49:36;38.70;;;8.88;;
24421;SDS011;12600;53.326;-6.298;2023-10-19T04:52:26;23.50;;;7.95;;
24421;SDS011;12600;53.326;-6.298;2023-10-19T04:55:15;23.15;;;7.30;;
24421;SDS011;12600;53.326;-6.298;2023-10-19T04:58:05;24.88;;;7.35;;
24421;SDS011;12600;53.326;-6.298;2023-10-19T05:00:55;23.38;;;6.90;;
24421;SDS011;12600;53.326;-6.298;2023-10-19T05:03:45;23.52;;;6.88;;
24421;SDS011;12600;53.326;-6.298;2023-10-19T05:06:36;25.20;;;7.32;;
24421;SDS011;12600;53.326;-6.298;2023-10-19T05:09:26;25.83;;;7.00;;
24421;SDS011;12600;53.326;-6.298;2023-10-19T05:12:15;24.58;;;7.00;;
24421;SDS011;12600;53.326;-6.298;2023-10-19T05:15:06;23.20;;;7.43;;
24421;SDS011;12600;53.326;-6.298;2023-10-19T05:17:56;26.02;;;6.80;;
24421;SDS011;12600;53.326;-6.298;2023-10-19T05:20:46;24.60;;;6.32;;
24421;SDS011;12600;53.326;-6.298;2023-10-19T05:23:37;21.65;;;6.07;;
24421;SDS011;12600;53.326;-6.298;2023-10-19T05:26:26;31.85;;;6.57;;
24421;SDS011;12600;53.326;-6.298;2023-10-19T05:29:16;34.55;;;7.22;;
24421;SDS011;12600;53.326;-6.298;2023-10-19T05:32:05;29.27;;;6.22;;
24421;SDS011;12600;53.326;-6.298;2023-10-19T05:34:56;31.05;;;6.72;;
24421;SDS011;12600;53.326;-6.298;2023-10-19T05:37:50;29.50;;;7.13;;
24421;SDS011;12600;53.326;-6.298;2023-10-19T05:40:41;34.00;;;6.97;;
24421;SDS011;12600;53.326;-6.298;2023-10-19T05:43:32;34.85;;;6.40;;
24421;SDS011;12600;53.326;-6.298;2023-10-19T05:46:22;35.40;;;7.13;;
24421;SDS011;12600;53.326;-6.298;2023-10-19T05:49:12;41.35;;;6.72;;
24421;SDS011;12600;53.326;-6.298;2023-10-19T05:52:04;28.50;;;6.20;;
24421;SDS011;12600;53.326;-6.298;2023-10-19T05:54:53;41.88;;;7.32;;
24421;SDS011;12600;53.326;-6.298;2023-10-19T05:57:46;32.53;;;6.28;;
24421;SDS011;12600;53.326;-6.298;2023-10-19T06:00:36;43.28;;;7.03;;
24421;SDS011;12600;53.326;-6.298;2023-10-19T06:03:26;34.72;;;6.28;;
24421;SDS011;12600;53.326;-6.298;2023-10-19T06:06:15;29.63;;;6.25;;
24421;SDS011;12600;53.326;-6.298;2023-10-19T06:09:05;22.88;;;6.22;;
24421;SDS011;12600;53.326;-6.298;2023-10-19T06:11:56;42.35;;;7.85;;
24421;SDS011;12600;53.326;-6.298;2023-10-19T06:14:47;30.75;;;6.40;;
24421;SDS011;12600;53.326;-6.298;2023-10-19T06:17:36;26.83;;;5.90;;
24421;SDS011;12600;53.326;-6.298;2023-10-19T06:20:27;25.30;;;5.95;;
24421;SDS011;12600;53.326;-6.298;2023-10-19T06:23:17;31.55;;;6.20;;
24421;SDS011;12600;53.326;-6.298;2023-10-19T06:26:09;26.65;;;5.43;;
24421;SDS011;12600;53.326;-6.298;2023-10-19T06:28:59;20.65;;;4.53;;
24421;SDS011;12600;53.326;-6.298;2023-10-19T06:31:52;28.30;;;5.10;;
24421;SDS011;12600;53.326;-6.298;2023-10-19T06:34:42;24.83;;;4.53;;
24421;SDS011;12600;53.326;-6.298;2023-10-19T06:37:31;32.55;;;5.03;;
24421;SDS011;12600;53.326;-6.298;2023-10-19T06:40:21;23.55;;;4.03;;
24421;SDS011;12600;53.326;-6.298;2023-10-19T06:43:10;17.77;;;3.90;;
24421;SDS011;12600;53.326;-6.298;2023-10-19T06:46:00;18.33;;;5.88;;
24421;SDS011;12600;53.326;-6.298;2023-10-19T06:48:51;24.38;;;4.15;;
24421;SDS011;12600;53.326;-6.298;2023-10-19T06:51:43;33.15;;;4.45;;
24421;SDS011;12600;53.326;-6.298;2023-10-19T06:54:32;16.00;;;3.80;;
24421;SDS011;12600;53.326;-6.298;2023-10-19T06:57:22;29.20;;;4.45;;
24421;SDS011;12600;53.326;-6.298;2023-10-19T07:00:11;77.22;;;28.50;;
24421;SDS011;12600;53.326;-6.298;2023-10-19T07:03:03;41.50;;;6.72;;
24421;SDS011;12600;53.326;-6.298;2023-10-19T07:05:55;24.90;;;6.32;;
24421;SDS011;12600;53.326;-6.298;2023-10-19T07:08:45;29.23;;;7.20;;
24421;SDS011;12600;53.326;-6.298;2023-10-19T07:11:35;27.70;;;9.05;;
24421;SDS011;12600;53.326;-6.298;2023-10-19T07:14:24;27.10;;;8.48;;
24421;SDS011;12600;53.326;-6.298;2023-10-19T07:17:14;23.83;;;6.53;;
24421;SDS011;12600;53.326;-6.298;2023-10-19T07:20:04;29.98;;;7.07;;
24421;SDS011;12600;53.326;-6.298;2023-10-19T07:22:58;31.27;;;8.50;;
24421;SDS011;12600;53.326;-6.298;2023-10-19T07:25:54;30.90;;;7.50;;
24421;SDS011;12600;53.326;-6.298;2023-10-19T07:28:47;33.08;;;9.13;;
24421;SDS011;12600;53.326;-6.298;2023-10-19T07:31:37;31.45;;;9.45;;
24421;SDS011;12600;53.326;-6.298;2023-10-19T07:34:27;27.33;;;8.25;;
24421;SDS011;12600;53.326;-6.298;2023-10-19T07:37:21;19.63;;;6.32;;
24421;SDS011;12600;53.326;-6.298;2023-10-19T07:40:12;22.33;;;6.97;;
24421;SDS011;12600;53.326;-6.298;2023-10-19T07:43:02;20.45;;;6.28;;
24421;SDS011;12600;53.326;-6.298;2023-10-19T07:45:52;25.25;;;8.02;;
24421;SDS011;12600;53.326;-6.298;2023-10-19T07:48:41;29.10;;;8.20;;
24421;SDS011;12600;53.326;-6.298;2023-10-19T07:51:31;31.50;;;9.00;;
24421;SDS011;12600;53.326;-6.298;2023-10-19T07:54:21;37.08;;;10.15;;
24421;SDS011;12600;53.326;-6.298;2023-10-19T07:57:12;39.10;;;10.35;;
24421;SDS011;12600;53.326;-6.298;2023-10-19T08:00:03;30.50;;;9.13;;
24421;SDS011;12600;53.326;-6.298;2023-10-19T08:02:55;33.25;;;9.15;;
24421;SDS011;12600;53.326;-6.298;2023-10-19T08:05:46;41.35;;;10.13;;
24421;SDS011;12600;53.326;-6.298;2023-10-19T08:08:36;39.85;;;9.85;;
24421;SDS011;12600;53.326;-6.298;2023-10-19T08:11:25;42.17;;;10.05;;
24421;SDS011;12600;53.326;-6.298;2023-10-19T08:14:16;31.75;;;8.68;;
24421;SDS011;12600;53.326;-6.298;2023-10-19T08:17:06;31.10;;;7.85;;
24421;SDS011;12600;53.326;-6.298;2023-10-19T08:19:56;33.97;;;8.20;;
24421;SDS011;12600;53.326;-6.298;2023-10-19T08:22:45;39.97;;;9.13;;
24421;SDS011;12600;53.326;-6.298;2023-10-19T08:25:35;34.13;;;8.45;;
24421;SDS011;12600;53.326;-6.298;2023-10-19T08:28:27;39.05;;;7.32;;
24421;SDS011;12600;53.326;-6.298;2023-10-19T08:31:18;31.83;;;7.88;;
24421;SDS011;12600;53.326;-6.298;2023-10-19T08:34:08;28.50;;;7.18;;
24421;SDS011;12600;53.326;-6.298;2023-10-19T08:36:58;28.63;;;7.20;;
24421;SDS011;12600;53.326;-6.298;2023-10-19T08:39:47;24.88;;;6.35;;
24421;SDS011;12600;53.326;-6.298;2023-10-19T08:42:37;26.20;;;5.90;;
24421;SDS011;12600;53.326;-6.298;2023-10-19T08:45:27;24.40;;;6.78;;
24421;SDS011;12600;53.326;-6.298;2023-10-19T08:48:19;20.42;;;5.97;;
24421;SDS011;12600;53.326;-6.298;2023-10-19T08:51:09;23.73;;;7.13;;
24421;SDS011;12600;53.326;-6.298;2023-10-19T08:53:58;21.83;;;6.88;;
24421;SDS011;12600;53.326;-6.298;2023-10-19T08:56:49;75.30;;;24.48;;
24421;SDS011;12600;53.326;-6.298;2023-10-19T08:59:40;23.63;;;6.60;;
24421;SDS011;12600;53.326;-6.298;2023-10-19T09:02:29;24.77;;;7.53;;
24421;SDS011;12600;53.326;-6.298;2023-10-19T09:05:21;23.27;;;7.22;;
24421;SDS011;12600;53.326;-6.298;2023-10-19T09:11:07;21.13;;;8.45;;
24421;SDS011;12600;53.326;-6.298;2023-10-19T09:13:59;24.92;;;8.73;;
24421;SDS011;12600;53.326;-6.298;2023-10-19T09:16:54;16.48;;;6.60;;
24421;SDS011;12600;53.326;-6.298;2023-10-19T09:19:45;18.75;;;7.22;;
24421;SDS011;12600;53.326;-6.298;2023-10-19T09:22:36;13.15;;;5.13;;
24421;SDS011;12600;53.326;-6.298;2023-10-19T09:25:31;12.93;;;4.47;;
24421;SDS011;12600;53.326;-6.298;2023-10-19T09:28:22;13.07;;;4.68;;
24421;SDS011;12600;53.326;-6.298;2023-10-19T09:31:12;10.45;;;4.45;;
24421;SDS011;12600;53.326;-6.298;2023-10-19T09:34:03;10.73;;;4.65;;
24421;SDS011;12600;53.326;-6.298;2023-10-19T09:36:58;13.30;;;4.50;;
24421;SDS011;12600;53.326;-6.298;2023-10-19T09:39:51;18.10;;;6.60;;
24421;SDS011;12600;53.326;-6.298;2023-10-19T09:42:40;14.57;;;7.63;;
24421;SDS011;12600;53.326;-6.298;2023-10-19T09:45:36;16.23;;;6.95;;
24421;SDS011;12600;53.326;-6.298;2023-10-19T09:48:30;14.38;;;6.25;;
24421;SDS011;12600;53.326;-6.298;2023-10-19T09:51:23;12.25;;;4.85;;
24421;SDS011;12600;53.326;-6.298;2023-10-19T09:54:14;12.27;;;5.13;;
24421;SDS011;12600;53.326;-6.298;2023-10-19T09:57:17;8.02;;;3.65;;
24421;SDS011;12600;53.326;-6.298;2023-10-19T10:00:20;10.02;;;4.10;;
24421;SDS011;12600;53.326;-6.298;2023-10-19T10:09:47;8.63;;;3.75;;
24421;SDS011;12600;53.326;-6.298;2023-10-19T10:12:38;13.45;;;4.60;;
24421;SDS011;12600;53.326;-6.298;2023-10-19T10:15:37;9.52;;;3.90;;
24421;SDS011;12600;53.326;-6.298;2023-10-19T10:18:29;7.25;;;3.08;;
24421;SDS011;12600;53.326;-6.298;2023-10-19T10:21:20;9.07;;;3.60;;
24421;SDS011;12600;53.326;-6.298;2023-10-19T10:24:12;6.97;;;3.60;;
24421;SDS011;12600;53.326;-6.298;2023-10-19T10:27:02;11.30;;;3.38;;
24421;SDS011;12600;53.326;-6.298;2023-10-19T10:29:58;12.32;;;3.35;;
24421;SDS011;12600;53.326;-6.298;2023-10-19T10:32:53;13.98;;;3.90;;
24421;SDS011;12600;53.326;-6.298;2023-10-19T10:35:53;12.02;;;3.65;;
24421;SDS011;12600;53.326;-6.298;2023-10-19T10:38:43;9.40;;;3.72;;
24421;SDS011;12600;53.326;-6.298;2023-10-19T10:41:32;8.80;;;3.38;;
24421;SDS011;12600;53.326;-6.298;2023-10-19T10:44:35;8.00;;;3.30;;
24421;SDS011;12600;53.326;-6.298;2023-10-19T10:47:30;7.90;;;3.33;;
24421;SDS011;12600;53.326;-6.298;2023-10-19T10:50:21;8.70;;;3.72;;
24421;SDS011;12600;53.326;-6.298;2023-10-19T10:53:11;8.13;;;4.00;;
24421;SDS011;12600;53.326;-6.298;2023-10-19T10:56:02;12.10;;;4.72;;
24421;SDS011;12600;53.326;-6.298;2023-10-19T10:58:52;9.95;;;3.78;;
24421;SDS011;12600;53.326;-6.298;2023-10-19T11:01:42;6.35;;;4.25;;
24421;SDS011;12600;53.326;-6.298;2023-10-19T11:04:33;8.18;;;4.10;;
24421;SDS011;12600;53.326;-6.298;2023-10-19T11:07:31;6.43;;;2.92;;
24421;SDS011;12600;53.326;-6.298;2023-10-19T11:10:26;4.85;;;2.90;;
24421;SDS011;12600;53.326;-6.298;2023-10-19T11:13:16;4.93;;;2.75;;
24421;SDS011;12600;53.326;-6.298;2023-10-19T11:16:21;4.68;;;2.28;;
24421;SDS011;12600;53.326;-6.298;2023-10-19T11:19:11;8.35;;;3.30;;
24421;SDS011;12600;53.326;-6.298;2023-10-19T11:22:02;9.43;;;3.97;;
24421;SDS011;12600;53.326;-6.298;2023-10-19T11:24:58;9.63;;;4.15;;
24421;SDS011;12600;53.326;-6.298;2023-10-19T11:28:16;8.30;;;2.10;;
24421;SDS011;12600;53.326;-6.298;2023-10-19T11:31:16;3.95;;;1.50;;
24421;SDS011;12600;53.326;-6.298;2023-10-19T11:34:06;3.05;;;0.80;;
24421;SDS011;12600;53.326;-6.298;2023-10-19T11:36:57;3.38;;;0.82;;
24421;SDS011;12600;53.326;-6.298;2023-10-19T11:39:48;5.03;;;1.40;;
24421;SDS011;12600;53.326;-6.298;2023-10-19T11:42:38;4.60;;;1.52;;
24421;SDS011;12600;53.326;-6.298;2023-10-19T11:45:27;14.20;;;9.07;;
24421;SDS011;12600;53.326;-6.298;2023-10-19T11:48:17;8.13;;;1.90;;
24421;SDS011;12600;53.326;-6.298;2023-10-19T11:51:07;4.93;;;1.35;;
24421;SDS011;12600;53.326;-6.298;2023-10-19T11:53:58;5.57;;;1.55;;
24421;SDS011;12600;53.326;-6.298;2023-10-19T11:56:49;6.38;;;1.50;;
24421;SDS011;12600;53.326;-6.298;2023-10-19T11:59:40;5.77;;;1.77;;
24421;SDS011;12600;53.326;-6.298;2023-10-19T12:02:29;4.97;;;1.40;;
24421;SDS011;12600;53.326;-6.298;2023-10-19T12:05:19;7.45;;;2.45;;
24421;SDS011;12600;53.326;-6.298;2023-10-19T12:08:09;5.18;;;1.38;;
24421;SDS011;12600;53.326;-6.298;2023-10-19T12:10:58;4.15;;;1.05;;
24421;SDS011;12600;53.326;-6.298;2023-10-19T12:13:52;6.57;;;1.33;;
24421;SDS011;12600;53.326;-6.298;2023-10-19T12:16:42;6.40;;;2.83;;
24421;SDS011;12600;53.326;-6.298;2023-10-19T12:19:32;4.47;;;1.33;;
24421;SDS011;12600;53.326;-6.298;2023-10-19T12:22:22;8.07;;;1.50;;
24421;SDS011;12600;53.326;-6.298;2023-10-19T12:25:15;7.15;;;2.00;;
24421;SDS011;12600;53.326;-6.298;2023-10-19T12:28:05;4.80;;;1.10;;
24421;SDS011;12600;53.326;-6.298;2023-10-19T12:30:56;6.90;;;1.30;;
24421;SDS011;12600;53.326;-6.298;2023-10-19T12:33:45;6.20;;;1.20;;
24421;SDS011;12600;53.326;-6.298;2023-10-19T12:36:34;8.40;;;1.52;;
24421;SDS011;12600;53.326;-6.298;2023-10-19T12:39:24;6.75;;;1.45;;
24421;SDS011;12600;53.326;-6.298;2023-10-19T12:42:30;9.07;;;1.77;;
24421;SDS011;12600;53.326;-6.298;2023-10-19T12:45:20;5.43;;;1.75;;
24421;SDS011;12600;53.326;-6.298;2023-10-19T12:48:11;10.18;;;1.98;;
24421;SDS011;12600;53.326;-6.298;2023-10-19T12:51:01;9.95;;;1.70;;
24421;SDS011;12600;53.326;-6.298;2023-10-19T12:53:51;6.90;;;1.17;;
24421;SDS011;12600;53.326;-6.298;2023-10-19T12:56:40;5.65;;;1.42;;
24421;SDS011;12600;53.326;-6.298;2023-10-19T12:59:30;5.72;;;1.10;;
24421;SDS011;12600;53.326;-6.298;2023-10-19T13:02:19;8.85;;;1.35;;
24421;SDS011;12600;53.326;-6.298;2023-10-19T13:05:10;8.07;;;1.63;;
24421;SDS011;12600;53.326;-6.298;2023-10-19T13:08:04;5.57;;;1.00;;
24421;SDS011;12600;53.326;-6.298;2023-10-19T13:10:55;7.65;;;1.15;;
24421;SDS011;12600;53.326;-6.298;2023-10-19T13:13:54;5.32;;;1.38;;
24421;SDS011;12600;53.326;-6.298;2023-10-19T13:16:44;8.25;;;1.35;;
24421;SDS011;12600;53.326;-6.298;2023-10-19T13:19:35;9.27;;;1.40;;
24421;SDS011;12600;53.326;-6.298;2023-10-19T13:22:26;6.68;;;1.25;;
24421;SDS011;12600;53.326;-6.298;2023-10-19T13:25:16;7.00;;;1.30;;
24421;SDS011;12600;53.326;-6.298;2023-10-19T13:28:16;9.95;;;1.42;;
24421;SDS011;12600;53.326;-6.298;2023-10-19T13:31:07;9.98;;;1.52;;
24421;SDS011;12600;53.326;-6.298;2023-10-19T13:33:57;10.60;;;1.60;;
24421;SDS011;12600;53.326;-6.298;2023-10-19T13:36:47;8.02;;;1.17;;
24421;SDS011;12600;53.326;-6.298;2023-10-19T13:39:40;8.90;;;1.55;;
24421;SDS011;12600;53.326;-6.298;2023-10-19T13:42:29;11.75;;;2.22;;
24421;SDS011;12600;53.326;-6.298;2023-10-19T13:45:37;15.02;;;2.20;;
24421;SDS011;12600;53.326;-6.298;2023-10-19T13:48:28;12.18;;;1.83;;
24421;SDS011;12600;53.326;-6.298;2023-10-19T13:51:18;11.98;;;1.92;;
24421;SDS011;12600;53.326;-6.298;2023-10-19T13:54:07;13.93;;;1.95;;
24421;SDS011;12600;53.326;-6.298;2023-10-19T13:56:58;11.45;;;2.25;;
24421;SDS011;12600;53.326;-6.298;2023-10-19T13:59:47;23.10;;;2.55;;
24421;SDS011;12600;53.326;-6.298;2023-10-19T14:02:37;17.42;;;2.72;;
24421;SDS011;12600;53.326;-6.298;2023-10-19T14:05:28;21.90;;;2.60;;
24421;SDS011;12600;53.326;-6.298;2023-10-19T14:08:23;18.05;;;2.90;;
24421;SDS011;12600;53.326;-6.298;2023-10-19T14:11:12;25.85;;;2.85;;
24421;SDS011;12600;53.326;-6.298;2023-10-19T14:14:04;25.48;;;3.25;;
24421;SDS011;12600;53.326;-6.298;2023-10-19T14:16:53;19.05;;;2.58;;
24421;SDS011;12600;53.326;-6.298;2023-10-19T14:19:43;20.45;;;2.78;;
24421;SDS011;12600;53.326;-6.298;2023-10-19T14:22:32;24.38;;;3.38;;
24421;SDS011;12600;53.326;-6.298;2023-10-19T14:25:23;23.10;;;2.63;;
24421;SDS011;12600;53.326;-6.298;2023-10-19T14:28:13;20.23;;;2.88;;
24421;SDS011;12600;53.326;-6.298;2023-10-19T14:31:04;18.45;;;2.88;;
24421;SDS011;12600;53.326;-6.298;2023-10-19T14:33:55;26.02;;;2.83;;
24421;SDS011;12600;53.326;-6.298;2023-10-19T14:36:45;27.40;;;3.00;;
24421;SDS011;12600;53.326;-6.298;2023-10-19T14:39:35;20.27;;;2.88;;
24421;SDS011;12600;53.326;-6.298;2023-10-19T14:42:24;30.63;;;3.30;;
24421;SDS011;12600;53.326;-6.298;2023-10-19T14:45:17;23.15;;;2.63;;
24421;SDS011;12600;53.326;-6.298;2023-10-19T14:48:08;23.63;;;2.90;;
24421;SDS011;12600;53.326;-6.298;2023-10-19T14:50:58;23.30;;;3.30;;
24421;SDS011;12600;53.326;-6.298;2023-10-19T14:53:48;25.63;;;3.20;;
24421;SDS011;12600;53.326;-6.298;2023-10-19T14:56:38;25.27;;;3.67;;
24421;SDS011;12600;53.326;-6.298;2023-10-19T14:59:27;29.10;;;3.63;;
24421;SDS011;12600;53.326;-6.298;2023-10-19T15:05:12;29.35;;;4.45;;
24421;SDS011;12600;53.326;-6.298;2023-10-19T15:08:03;25.95;;;3.88;;
24421;SDS011;12600;53.326;-6.298;2023-10-19T15:10:55;40.90;;;4.18;;
24421;SDS011;12600;53.326;-6.298;2023-10-19T15:13:44;32.47;;;3.70;;
24421;SDS011;12600;53.326;-6.298;2023-10-19T15:16:34;29.88;;;4.38;;
24421;SDS011;12600;53.326;-6.298;2023-10-19T15:19:23;31.23;;;4.50;;
24421;SDS011;12600;53.326;-6.298;2023-10-19T15:22:14;33.42;;;4.43;;
24421;SDS011;12600;53.326;-6.298;2023-10-19T15:25:04;26.30;;;4.50;;
24421;SDS011;12600;53.326;-6.298;2023-10-19T15:27:54;25.63;;;3.90;;
24421;SDS011;12600;53.326;-6.298;2023-10-19T15:30:45;36.65;;;4.47;;
24421;SDS011;12600;53.326;-6.298;2023-10-19T15:33:34;28.35;;;3.60;;
24421;SDS011;12600;53.326;-6.298;2023-10-19T15:36:23;21.33;;;3.25;;
24421;SDS011;12600;53.326;-6.298;2023-10-19T15:39:15;27.02;;;3.67;;
24421;SDS011;12600;53.326;-6.298;2023-10-19T15:42:05;17.65;;;3.45;;
24421;SDS011;12600;53.326;-6.298;2023-10-19T15:44:55;22.48;;;3.95;;
24421;SDS011;12600;53.326;-6.298;2023-10-19T15:47:45;18.58;;;4.20;;
24421;SDS011;12600;53.326;-6.298;2023-10-19T15:50:35;26.50;;;4.55;;
24421;SDS011;12600;53.326;-6.298;2023-10-19T15:53:28;25.13;;;4.10;;
24421;SDS011;12600;53.326;-6.298;2023-10-19T15:56:18;27.38;;;4.43;;
24421;SDS011;12600;53.326;-6.298;2023-10-19T15:59:09;17.58;;;3.90;;
24421;SDS011;12600;53.326;-6.298;2023-10-19T16:01:59;23.85;;;4.72;;
24421;SDS011;12600;53.326;-6.298;2023-10-19T16:04:48;21.20;;;4.20;;
24421;SDS011;12600;53.326;-6.298;2023-10-19T16:07:38;19.08;;;4.10;;
24421;SDS011;12600;53.326;-6.298;2023-10-19T16:10:28;16.75;;;4.45;;
24421;SDS011;12600;53.326;-6.298;2023-10-19T16:13:19;20.95;;;4.97;;
24421;SDS011;12600;53.326;-6.298;2023-10-19T16:16:08;26.15;;;5.68;;
24421;SDS011;12600;53.326;-6.298;2023-10-19T16:18:58;18.17;;;5.63;;
24421;SDS011;12600;53.326;-6.298;2023-10-19T16:21:47;20.95;;;5.63;;
24421;SDS011;12600;53.326;-6.298;2023-10-19T16:24:37;15.73;;;5.07;;
24421;SDS011;12600;53.326;-6.298;2023-10-19T16:27:26;17.90;;;4.75;;
24421;SDS011;12600;53.326;-6.298;2023-10-19T16:30:17;19.88;;;5.40;;
24421;SDS011;12600;53.326;-6.298;2023-10-19T16:33:07;19.98;;;6.65;;
24421;SDS011;12600;53.326;-6.298;2023-10-19T16:35:56;25.10;;;7.07;;
24421;SDS011;12600;53.326;-6.298;2023-10-19T16:38:46;23.52;;;8.13;;
24421;SDS011;12600;53.326;-6.298;2023-10-19T16:41:35;27.65;;;9.27;;
24421;SDS011;12600;53.326;-6.298;2023-10-19T16:44:26;22.48;;;7.57;;
24421;SDS011;12600;53.326;-6.298;2023-10-19T16:47:17;22.27;;;7.80;;
24421;SDS011;12600;53.326;-6.298;2023-10-19T16:50:09;26.13;;;7.97;;
24421;SDS011;12600;53.326;-6.298;2023-10-19T16:53:01;27.15;;;8.07;;
24421;SDS011;12600;53.326;-6.298;2023-10-19T16:55:51;32.90;;;8.90;;